• Join FlightAware (Why Join?)
  • Login
  • US Flag 
12:58PM EDT


 

Airport Tracker/Info


-or-


 

Live Flight TrackerFlight Track Log ✈ UPS976 ✈ 29-Jun-2014 ✈ KSDF - KPDX

Flight Track Log - Related Links

Times and Time Zones

All times are in EDT time to prevent confusion due to time zone crossing. See the UPS976 flight status page for this flight to view local times or setup timezone preferences in your user account.

Time Position Orientation Groundspeed Altitude Reporting Facility
EDT Latitude Longitude Course Direction KTS MPH feet Rate Location/Type
03:00PM 38.1386 -85.7330 172° South 183 211 2,000  Level FlightAware ADS-B (KBRY)
03:02PM 38.0751 -85.8143 271° West 261 300 5,700 2,040 Climbing FlightAware ADS-B (KBRY)
03:03PM 38.0744 -85.9192 267° West 271 312 8,200 2,160 Climbing FlightAware ADS-B (KBRY)
03:04PM 38.0678 -86.0155 266° West 287 330 10,300 1,980 Climbing FlightAware ADS-B (KBRY)
03:05PM 38.0652 -86.1141 271° West 332 382 12,200 1,680 Climbing FlightAware ADS-B (KBRY)
03:06PM 38.0674 -86.1791 273° West 375 432 13,000 1,740 Climbing FlightAware ADS-B (KBRY)
03:07PM 38.0753 -86.3568 273° West 417 480 15,300 2,040 Climbing FlightAware ADS-B (KBRY)
03:08PM 38.0792 -86.4756 273° West 413 475 17,400 2,160 Climbing Indianapolis Center
03:10PM 38.0906 -86.7839 273° West 432 497 22,000 2,040 Climbing Kansas City Center
03:11PM 38.0950 -86.9469 272° West 444 511 23,900 1,860 Climbing Kansas City Center
03:12PM 38.1011 -87.1153 273° West 461 531 25,800 1,620 Climbing Kansas City Center
03:13PM 38.1064 -87.2878 272° West 475 547 27,300 1,020 Climbing Kansas City Center
03:14PM 38.1117 -87.4617 272° West 484 557 28,000 840 Climbing Kansas City Center
03:15PM 38.1175 -87.6708 272° West 488 562 29,100 1,440 Climbing Kansas City Center
03:16PM 38.1219 -87.8425 272° West 487 560 31,000 1,680 Climbing Indianapolis Center
03:17PM 38.1261 -88.0119 272° West 483 556 32,600 1,440 Climbing Indianapolis Center
03:18PM 38.1297 -88.1789 272° West 477 549 34,000 660 Climbing Indianapolis Center
03:19PM 38.1342 -88.3403 272° West 464 534 34,000  Level Indianapolis Center
03:20PM 38.1361 -88.5003 271° West 455 524 34,000  Level Indianapolis Center
03:21PM 38.1394 -88.6633 272° West 455 524 34,000  Level Indianapolis Center
03:22PM 38.1419 -88.8597 271° West 458 527 34,000  Level Indianapolis Center
03:23PM 38.1450 -89.0250 271° West 464 534 34,000  Level Indianapolis Center
03:24PM 38.1461 -89.2000 271° West 474 545 34,000  Level Kansas City Center
03:25PM 38.1489 -89.3658 271° West 474 545 34,000  Level Kansas City Center
03:26PM 38.1506 -89.5331 271° West 474 545 34,000  Level Kansas City Center
03:27PM 38.1517 -89.6942 271° West 461 531 34,000  Level Kansas City Center
03:28PM 38.1547 -89.8536 271° West 454 522 34,000  Level Kansas City Center
03:30PM 38.1550 -90.0164 270° West 455 524 34,000  Level Kansas City Center
03:31PM 38.1550 -90.2131 270° West 457 526 34,000  Level Kansas City Center
03:32PM 38.1561 -90.3783 271° West 461 531 34,000  Level Kansas City Center
03:33PM 38.1564 -90.5422 270° West 462 532 34,000  Level Kansas City Center
03:34PM 38.1558 -90.7061 270° West 462 532 34,000  Level Kansas City Center
03:35PM 38.1564 -90.8694 270° West 462 532 34,000  Level Kansas City Center
03:36PM 38.1561 -91.0333 270° West 462 532 34,000  Level Kansas City Center
03:37PM 38.1553 -91.2053 270° West 462 532 34,000  Level Kansas City Center
03:38PM 38.1547 -91.3675 270° West 461 531 34,000  Level Kansas City Center
03:39PM 38.1542 -91.5289 270° West 460 529 34,000  Level Kansas City Center
03:40PM 38.1542 -91.7242 270° West 460 529 34,000  Level Kansas City Center
03:41PM 38.1628 -91.8872 274° West 461 531 34,000  Level Kansas City Center
03:42PM 38.1717 -92.0500 274° West 464 534 34,000  Level Kansas City Center
03:43PM 38.1794 -92.2042 274° West 467 537 34,000  Level Kansas City Center
03:44PM 38.1897 -92.3714 275° West 467 537 34,000  Level Kansas City Center
03:45PM 38.1983 -92.5661 273° West 467 537 34,000  Level Kansas City Center
03:46PM 38.2053 -92.7281 273° West 467 537 34,000  Level Kansas City Center
03:47PM 38.2111 -92.8881 273° West 463 533 34,000  Level Kansas City Center
03:48PM 38.2183 -93.0494 273° West 461 531 34,000  Level Kansas City Center
03:49PM 38.2256 -93.2125 273° West 461 531 34,000  Level Kansas City Center
03:55PM 38.2628 -94.1942 273° West 454 522 34,000  Level FlightAware ADS-B
03:56PM 38.2669 -94.3172 272° West 455 524 34,000  Level FlightAware ADS-B
03:57PM 38.2731 -94.4700 272° West 457 526 34,000  Level FlightAware ADS-B
03:57PM 38.2799 -94.5179 282° West 460 529 34,000  Level FlightAware ADS-B
03:58PM 38.2990 -94.6065 285° West 460 529 34,000  Level FlightAware ADS-B
03:58PM 38.3165 -94.6875 286° West 461 531 34,000  Level FlightAware ADS-B
03:59PM 38.3340 -94.7658 286° West 461 531 34,000  Level FlightAware ADS-B
03:59PM 38.3522 -94.8494 286° West 461 531 34,000  Level FlightAware ADS-B
04:03PM 38.4734 -95.4047 1000° North 449 517 34,000  Level FlightAware ADS-B
04:03PM 38.4957 -95.5081 285° West 467 537 34,000  Level FlightAware ADS-B
04:04PM 38.5156 -95.6013 285° West 468 539 34,000  Level FlightAware ADS-B
04:04PM 38.5341 -95.6893 285° West 468 539 34,000  Level FlightAware ADS-B
04:05PM 38.5535 -95.7797 285° West 467 537 34,000  Level FlightAware ADS-B
04:06PM 38.5702 -95.8594 285° West 466 536 34,000  Level FlightAware ADS-B
04:06PM 38.5885 -95.9471 285° West 467 537 34,000  Level FlightAware ADS-B
04:07PM 38.6067 -96.0349 285° West 466 536 34,000  Level FlightAware ADS-B
04:07PM 38.6322 -96.1573 285° West 467 537 34,000  Level FlightAware ADS-B
04:08PM 38.6591 -96.2881 285° West 467 537 34,000  Level FlightAware ADS-B
04:09PM 38.6877 -96.4274 285° West 468 539 34,000  Level FlightAware ADS-B
04:10PM 38.7341 -96.6550 285° West 466 536 34,000  Level FlightAware ADS-B
04:11PM 38.7503 -96.7345 284° West 464 534 34,000  Level FlightAware ADS-B
04:12PM 38.7764 -96.8640 284° West 462 532 34,000  Level FlightAware ADS-B
04:12PM 38.7933 -96.9482 284° West 459 528 34,000  Level FlightAware ADS-B
04:15PM 38.8808 -97.3925 284° West 449 517 34,000  Level FlightAware ADS-B
04:16PM 38.8961 -97.4697 284° West 447 514 34,000  Level FlightAware ADS-B
04:16PM 38.9124 -97.5548 284° West 447 514 34,000  Level FlightAware ADS-B
04:17PM 38.9295 -97.6339 286° West 447 514 34,000  Level FlightAware ADS-B
04:17PM 38.9437 -97.6945 288° West 444 511 34,000  Level FlightAware ADS-B
04:18PM 38.9629 -97.7699 288° West 443 510 34,000  Level FlightAware ADS-B
04:18PM 38.9826 -97.8473 288° West 443 510 34,000  Level FlightAware ADS-B
04:19PM 39.0022 -97.9248 288° West 442 509 34,000  Level FlightAware ADS-B
04:19PM 39.0216 -98.0023 288° West 441 507 34,000  Level FlightAware ADS-B
04:20PM 39.0406 -98.0796 288° West 441 507 34,000  Level FlightAware ADS-B
04:20PM 39.0593 -98.1542 288° West 440 506 34,000  Level FlightAware ADS-B
04:21PM 39.0779 -98.2290 288° West 440 506 34,000  Level FlightAware ADS-B
04:21PM 39.1049 -98.3383 288° West 440 506 34,000  Level FlightAware ADS-B
04:22PM 39.1234 -98.4130 288° West 438 504 34,000  Level FlightAware ADS-B
04:22PM 39.1420 -98.4900 287° West 438 504 34,000  Level FlightAware ADS-B
04:23PM 39.1628 -98.5745 287° West 438 504 34,000  Level FlightAware ADS-B
04:24PM 39.1811 -98.6490 287° West 437 503 34,000  Level FlightAware ADS-B
04:24PM 39.1994 -98.7261 287° West 438 504 34,000  Level FlightAware ADS-B
04:25PM 39.2185 -98.8032 287° West 437 503 34,000  Level FlightAware ADS-B
04:25PM 39.2384 -98.8851 287° West 436 502 34,000  Level FlightAware ADS-B
04:26PM 39.2631 -98.9933 287° West 434 499 34,000  Level Denver Center
04:27PM 39.2986 -99.1369 288° West 435 501 34,000  Level Denver Center
04:28PM 39.3369 -99.3036 287° West 435 501 34,000  Level Denver Center
04:29PM 39.3708 -99.4469 287° West 435 501 34,000  Level Denver Center
04:30PM 39.4103 -99.6142 287° West 436 502 34,000  Level Denver Center
04:31PM 39.4428 -99.7561 287° West 435 501 34,000  Level Denver Center
04:32PM 39.4758 -99.8972 287° West 429 494 34,000  Level Denver Center
04:33PM 39.5164 -100.0600 288° West 429 494 34,000  Level Denver Center
04:34PM 39.5564 -100.2014 290° West 432 497 34,000  Level Denver Center
04:40PM 39.7996 -101.0829 289° West 434 499 34,000  Level FlightAware ADS-B (KEIK)
04:41PM 39.8229 -101.1714 289° West 433 498 34,000  Level FlightAware ADS-B (KEIK)
04:41PM 39.8447 -101.2522 289° West 432 497 34,000  Level FlightAware ADS-B (KEIK)
04:42PM 39.8633 -101.3209 289° West 431 496 34,000  Level FlightAware ADS-B (KEIK)
04:42PM 39.8845 -101.4015 289° West 431 496 34,000  Level FlightAware ADS-B (KEIK)
04:43PM 39.8996 -101.4578 289° West 430 495 34,000  Level FlightAware ADS-B (KEIK)
04:43PM 39.9231 -101.5457 289° West 430 495 34,000  Level FlightAware ADS-B (KEIK)
04:44PM 39.9490 -101.6436 289° West 431 496 34,000  Level FlightAware ADS-B (KEIK)
04:45PM 39.9887 -101.7930 289° West 430 495 34,000  Level FlightAware ADS-B (KEIK)
04:45PM 40.0089 -101.8715 289° West 431 496 34,000  Level FlightAware ADS-B (KEIK)
04:46PM 40.0295 -101.9500 289° West 431 496 34,000  Level FlightAware ADS-B (KEIK)
04:47PM 40.0554 -102.0506 289° West 429 494 34,000  Level FlightAware ADS-B (KEIK)
04:47PM 40.0741 -102.1215 289° West 427 491 34,000  Level FlightAware ADS-B (KEIK)
04:48PM 40.1045 -102.2388 289° West 429 494 34,000  Level FlightAware ADS-B (KEIK)
04:48PM 40.1273 -102.3273 289° West 430 495 34,000  Level FlightAware ADS-B (KEIK)
04:49PM 40.1539 -102.4308 288° West 430 495 34,000  Level FlightAware ADS-B (KEIK)
04:50PM 40.1774 -102.5244 288° West 430 495 34,000  Level FlightAware ADS-B (KEIK)
04:50PM 40.2047 -102.6305 288° West 431 496 34,000  Level FlightAware ADS-B (KEIK)
04:51PM 40.2273 -102.7193 288° West 430 495 34,000  Level FlightAware ADS-B (KEIK)
04:52PM 40.2467 -102.7985 288° West 431 496 34,000  Level FlightAware ADS-B (KEIK)
04:53PM 40.2855 -102.9518 288° West 430 495 34,000  Level FlightAware ADS-B (KEIK)
04:53PM 40.3043 -103.0261 288° West 430 495 34,000  Level FlightAware ADS-B (KEIK)
04:54PM 40.3303 -103.1327 288° West 431 496 34,000  Level FlightAware ADS-B (KANK)
04:54PM 40.3485 -103.2045 288° West 431 496 34,000  Level FlightAware ADS-B (KEIK)
04:55PM 40.3730 -103.3038 288° West 430 495 34,000  Level FlightAware ADS-B (KEIK)
04:56PM 40.3922 -103.3830 288° West 430 495 34,000  Level FlightAware ADS-B (KEIK)
04:56PM 40.4112 -103.4598 288° West 430 495 34,000  Level FlightAware ADS-B (KANK)
04:57PM 40.4337 -103.5515 288° West 429 494 34,000  Level FlightAware ADS-B (KANK)
04:57PM 40.4582 -103.6526 288° West 427 491 34,000  Level FlightAware ADS-B (KEIK)
04:58PM 40.4761 -103.7267 288° West 427 491 34,000  Level FlightAware ADS-B (KEIK)
04:58PM 40.4936 -103.7982 288° West 427 491 34,000  Level FlightAware ADS-B (KANK)
04:59PM 40.5130 -103.8774 287° West 428 493 34,000  Level FlightAware ADS-B (KEIK)
04:59PM 40.5318 -103.9567 287° West 429 494 34,000  Level FlightAware ADS-B (KANK)
05:00PM 40.5509 -104.0359 287° West 428 493 34,000  Level FlightAware ADS-B (KANK)
05:01PM 40.5742 -104.1351 287° West 427 491 34,000  Level FlightAware ADS-B (KEIK)
05:01PM 40.5918 -104.2095 287° West 428 493 34,000  Level FlightAware ADS-B (KANK)
05:02PM 40.6114 -104.2913 287° West 428 493 34,000  Level FlightAware ADS-B (KEIK)
05:02PM 40.6289 -104.3658 287° West 428 493 34,000  Level FlightAware ADS-B (KEIK)
05:03PM 40.6452 -104.4354 287° West 427 491 34,000  Level FlightAware ADS-B (KEIK)
05:03PM 40.6677 -104.5295 287° West 426 490 34,000  Level FlightAware ADS-B (KANK)
05:04PM 40.6901 -104.6259 288° West 423 487 34,000  Level FlightAware ADS-B (KEIK)
05:04PM 40.7135 -104.7051 294° West 424 488 34,000  Level FlightAware ADS-B (KANK)
05:05PM 40.7412 -104.7825 296° West 425 489 34,000  Level FlightAware ADS-B (KANK)
05:06PM 40.7722 -104.8638 296° West 425 489 34,000  Level FlightAware ADS-B (KEIK)
05:06PM 40.8024 -104.9452 297° West 427 491 34,000  Level FlightAware ADS-B (KANK)
05:07PM 40.8369 -105.0360 296° West 425 489 34,000  Level FlightAware ADS-B (KEIK)
05:07PM 40.8627 -105.1057 296° West 425 489 34,000  Level FlightAware ADS-B (KEIK)
05:08PM 40.8955 -105.1915 296° West 421 484 34,000  Level FlightAware ADS-B (KANK)
05:08PM 40.9195 -105.2558 296° West 417 480 34,000  Level FlightAware ADS-B (KANK)
05:09PM 40.9515 -105.3423 296° West 416 479 34,000  Level FlightAware ADS-B (KEIK)
05:10PM 40.9770 -105.4109 296° West 418 481 34,000  Level FlightAware ADS-B (KEIK)
05:10PM 41.0032 -105.4821 296° West 419 482 34,000  Level FlightAware ADS-B (KEIK)
05:11PM 41.0307 -105.5563 296° West 424 488 34,000  Level FlightAware ADS-B (KEIK)
05:11PM 41.0514 -105.6122 296° West 426 490 34,000  Level FlightAware ADS-B (KEIK)
05:12PM 41.0824 -105.6965 296° West 427 491 34,000  Level FlightAware ADS-B (KEIK)
05:12PM 41.1252 -105.8141 296° West 426 490 34,000  Level FlightAware ADS-B (KEIK)
05:13PM 41.1579 -105.9034 296° West 426 490 34,000  Level FlightAware ADS-B (KEIK)
05:14PM 41.1878 -105.9856 295° West 425 489 34,000  Level FlightAware ADS-B (KEIK)
05:14PM 41.2035 -106.0305 295° West 423 487 34,000  Level FlightAware ADS-B (KEIK)
05:15PM 41.2468 -106.1502 295° West 424 488 34,000  Level FlightAware ADS-B (KEIK)
05:15PM 41.2756 -106.2326 295° West 425 489 34,000  Level FlightAware ADS-B (KEIK)
05:16PM 41.3169 -106.3491 295° West 429 494 34,000  Level FlightAware ADS-B (KEIK)
05:18PM 41.3875 -106.5487 295° West 424 488 34,000  Level FlightAware ADS-B (KEIK)
05:18PM 41.4232 -106.6504 295° West 423 487 34,000  Level FlightAware ADS-B (KEIK)
05:19PM 41.4501 -106.7257 295° West 422 486 34,000  Level FlightAware ADS-B (KEIK)
05:19PM 41.4746 -106.7965 295° West 421 484 34,000  Level FlightAware ADS-B (KEIK)
05:21PM 41.5757 -107.0884 295° West 421 484 34,000  Level FlightAware ADS-B (KANK)
05:22PM 41.5887 -107.1261 295° West 422 486 34,000  Level FlightAware ADS-B (KANK)
05:23PM 41.6338 -107.2583 295° West 420 483 34,000  Level FlightAware ADS-B (KANK)
05:24PM 41.6794 -107.3903 295° West 421 484 34,000  Level Salt Lake Center
05:25PM 41.7328 -107.5472 295° West 421 484 34,000  Level Denver Center
05:26PM 41.7786 -107.6825 294° West 420 483 34,000  Level Denver Center
05:27PM 41.8250 -107.8192 295° West 420 483 34,000  Level Denver Center
05:28PM 41.8775 -107.9786 294° West 421 484 34,000  Level Salt Lake Center
05:29PM 41.9311 -108.1383 294° West 422 486 34,000  Level Salt Lake Center
05:30PM 41.9767 -108.2758 294° West 423 487 34,000  Level Salt Lake Center
05:31PM 42.0303 -108.4364 294° West 424 488 34,000  Level Salt Lake Center
05:32PM 42.0744 -108.5733 294° West 421 484 34,000  Level Salt Lake Center
05:33PM 42.1264 -108.7344 294° West 422 486 34,000  Level Salt Lake Center
05:34PM 42.1708 -108.8725 294° West 422 486 34,000  Level Salt Lake Center
05:35PM 42.2228 -109.0336 294° West 422 486 34,000  Level Salt Lake Center
05:36PM 42.2672 -109.1739 293° West 422 486 34,000  Level Salt Lake Center
05:37PM 42.3189 -109.3347 294° West 422 486 34,000  Level Salt Lake Center
05:38PM 42.3617 -109.4719 293° West 421 484 34,000  Level Salt Lake Center
05:39PM 42.4128 -109.6328 293° West 419 482 34,000  Level Salt Lake Center
05:40PM 42.4550 -109.7700 293° West 417 480 34,000  Level Salt Lake Center
05:41PM 42.5078 -109.9319 294° West 419 482 34,000  Level Salt Lake Center
05:42PM 42.5503 -110.0708 293° West 419 482 34,000  Level Salt Lake Center
05:43PM 42.6000 -110.2353 292° West 419 482 34,000  Level Salt Lake Center
05:44PM 42.6431 -110.3733 293° West 419 482 34,000  Level Salt Lake Center
05:45PM 42.6922 -110.5369 292° West 419 482 34,000 -60 Level Salt Lake Center
05:46PM 42.7314 -110.6692 292° West 419 482 33,900  Descending Salt Lake Center
05:47PM 42.7769 -110.8186 293° West 421 484 34,000  Climbing Salt Lake Center
05:49PM 42.8308 -110.9983 292° West 423 487 34,000  Level Salt Lake Center
05:50PM 42.8742 -111.1467 292° West 422 486 34,000  Level Salt Lake Center
05:51PM 42.9178 -111.2942 292° West 422 486 34,000  Level Salt Lake Center
05:52PM 42.9606 -111.4422 292° West 421 484 34,000  Level Salt Lake Center
05:53PM 43.0069 -111.5992 292° West 419 482 34,000  Level Salt Lake Center
05:58PM 43.2555 -112.4645 291° West 418 481 34,000  Level FlightAware ADS-B (KBTF)
05:59PM 43.2897 -112.5857 291° West 418 481 34,000  Level FlightAware ADS-B (KBTF)
06:00PM 43.3227 -112.7026 291° West 421 484 34,000  Level FlightAware ADS-B (KBTF)
06:01PM 43.3598 -112.8371 291° West 419 482 34,000  Level FlightAware ADS-B (KBTF)
06:02PM 43.3878 -112.9393 291° West 420 483 34,000  Level FlightAware ADS-B (KBTF)
06:02PM 43.4105 -113.0217 291° West 419 482 34,000  Level FlightAware ADS-B (KBTF)
06:03PM 43.4339 -113.1062 291° West 419 482 34,000  Level FlightAware ADS-B (KBTF)
06:03PM 43.4564 -113.1885 291° West 420 483 34,000  Level FlightAware ADS-B (KBTF)
06:04PM 43.4789 -113.2711 291° West 420 483 34,000  Level FlightAware ADS-B (KBTF)
06:05PM 43.5185 -113.4160 290° West 419 482 34,000  Level FlightAware ADS-B (KBTF)
06:06PM 43.5459 -113.5185 291° West 417 480 34,000  Level FlightAware ADS-B (KBOI)
06:06PM 43.5529 -113.5458 290° West 418 481 34,000  Level FlightAware ADS-B (KBTF)
06:06PM 43.5660 -113.5935 291° West 418 481 34,000  Level FlightAware ADS-B (KBOI)
06:07PM 43.5866 -113.6709 291° West 418 481 34,000  Level FlightAware ADS-B (KBOI)
06:07PM 43.6025 -113.7310 289° West 415 478 34,000  Level FlightAware ADS-B (KBTF)
06:07PM 43.6059 -113.7436 291° West 417 480 34,000  Level FlightAware ADS-B (KBOI)
06:08PM 43.6295 -113.8310 290° West 418 481 34,000  Level FlightAware ADS-B (KBTF)
06:08PM 43.6357 -113.8534 290° West 418 481 34,000  Level FlightAware ADS-B (KBOI)
06:08PM 43.6503 -113.9086 289° West 415 478 34,000  Level FlightAware ADS-B (KBTF)
06:09PM 43.6726 -113.9934 291° West 417 480 34,000  Level FlightAware ADS-B (KBOI)
06:09PM 43.6779 -114.0134 290° West 417 480 34,000  Level FlightAware ADS-B (KBTF)
06:09PM 43.6926 -114.0685 291° West 417 480 34,000  Level FlightAware ADS-B (KBOI)
06:10PM 43.7119 -114.1432 290° West 414 476 34,000  Level FlightAware ADS-B (KBOI)
06:10PM 43.7219 -114.1806 289° West 412 474 34,000  Level FlightAware ADS-B (KBTF)
06:10PM 43.7308 -114.2154 290° West 413 475 34,000  Level FlightAware ADS-B (KBOI)
06:11PM 43.7451 -114.2700 289° West 410 472 34,000  Level FlightAware ADS-B (KBTF)
06:11PM 43.7511 -114.2922 290° West 412 474 34,000  Level FlightAware ADS-B (KBOI)
06:12PM 43.7830 -114.4161 290° West 411 473 34,000  Level FlightAware ADS-B (KBOI)
06:12PM 43.8018 -114.4881 290° West 413 475 34,000  Level FlightAware ADS-B (KBOI)
06:13PM 43.8223 -114.5678 290° West 413 475 34,000  Level FlightAware ADS-B (KBOI)
06:13PM 43.8416 -114.6426 290° West 414 476 34,000  Level FlightAware ADS-B (KBOI)
06:14PM 43.8609 -114.7176 290° West 414 476 34,000  Level FlightAware ADS-B (KBOI)
06:14PM 43.8796 -114.7903 290° West 415 478 34,000  Level FlightAware ADS-B (KBOI)
06:15PM 43.8985 -114.8654 290° West 413 475 34,000  Level FlightAware ADS-B (KBOI)
06:15PM 43.9172 -114.9402 290° West 413 475 34,000  Level FlightAware ADS-B (KBOI)
06:16PM 43.9371 -115.0177 290° West 413 475 34,000  Level FlightAware ADS-B (KBOI)
06:16PM 43.9554 -115.0904 290° West 413 475 34,000  Level FlightAware ADS-B (KBOI)
06:17PM 43.9738 -115.1630 290° West 413 475 34,000  Level FlightAware ADS-B (KBOI)
06:17PM 43.9937 -115.2430 290° West 413 475 34,000  Level FlightAware ADS-B (KBOI)
06:18PM 44.0102 -115.3080 289° West 412 474 34,000  Level FlightAware ADS-B (KBOI)
06:18PM 44.0305 -115.3906 290° West 411 473 34,000  Level FlightAware ADS-B (KBOI)
06:19PM 44.0458 -115.4505 290° West 411 473 34,000  Level FlightAware ADS-B (KBOI)
06:19PM 44.0681 -115.5406 289° West 410 472 34,000  Level FlightAware ADS-B (KBOI)
06:20PM 44.0854 -115.6128 289° West 409 471 34,000  Level FlightAware ADS-B (KBOI)
06:20PM 44.1047 -115.6898 289° West 409 471 34,000  Level FlightAware ADS-B (KBOI)
06:21PM 44.1231 -115.7672 289° West 409 471 34,000  Level FlightAware ADS-B (KBOI)
06:21PM 44.1419 -115.8419 289° West 409 471 34,000  Level FlightAware ADS-B (KBOI)
06:22PM 44.1777 -115.9889 289° West 407 468 34,000  Level FlightAware ADS-B (KBOI)
06:23PM 44.1958 -116.0636 289° West 408 470 34,000  Level FlightAware ADS-B (KBOI)
06:24PM 44.2318 -116.2134 289° West 409 471 34,000  Level FlightAware ADS-B (KBOI)
06:24PM 44.2498 -116.2885 289° West 408 470 34,000  Level FlightAware ADS-B (KBOI)
06:25PM 44.2858 -116.4412 289° West 409 471 34,000  Level FlightAware ADS-B (KBOI)
06:26PM 44.3038 -116.5163 289° West 408 470 34,000  Level FlightAware ADS-B (KBOI)
06:26PM 44.3215 -116.5915 288° West 408 470 34,000  Level FlightAware ADS-B (KBOI)
06:27PM 44.3391 -116.6665 289° West 406 467 34,000  Level FlightAware ADS-B (KBOI)
06:27PM 44.3568 -116.7412 289° West 405 466 34,000  Level FlightAware ADS-B (KBOI)
06:28PM 44.3741 -116.8156 288° West 404 465 34,000  Level FlightAware ADS-B (KBOI)
06:28PM 44.3911 -116.8878 288° West 405 466 34,000  Level FlightAware ADS-B (KBOI)
06:29PM 44.4089 -116.9652 288° West 405 466 34,000  Level FlightAware ADS-B (KBOI)
06:29PM 44.4252 -117.0349 288° West 405 466 34,000  Level FlightAware ADS-B (KBOI)
06:30PM 44.4432 -117.1149 288° West 406 467 34,000  Level FlightAware ADS-B (KBOI)
06:30PM 44.4608 -117.1899 288° West 407 468 34,000  Level FlightAware ADS-B (KBOI)
06:31PM 44.4775 -117.2626 288° West 406 467 34,000  Level FlightAware ADS-B (KBOI)
06:31PM 44.4944 -117.3377 288° West 406 467 34,000  Level FlightAware ADS-B (KBOI)
06:32PM 44.5119 -117.4153 288° West 406 467 34,000  Level FlightAware ADS-B (KBOI)
06:32PM 44.5291 -117.4904 288° West 406 467 34,000  Level FlightAware ADS-B (KBOI)
06:33PM 44.5628 -117.6383 288° West 404 465 34,000  Level FlightAware ADS-B (KBOI)
06:34PM 44.5782 -117.7085 288° West 404 465 34,000  Level FlightAware ADS-B (KBOI)
06:34PM 44.5967 -117.7908 288° West 404 465 34,000  Level FlightAware ADS-B (KBOI)
06:35PM 44.6131 -117.8634 288° West 405 466 34,000  Level FlightAware ADS-B (KBOI)
06:35PM 44.6299 -117.9412 288° West 405 466 34,000  Level FlightAware ADS-B (KBOI)
06:36PM 44.6466 -118.0164 288° West 404 465 34,000  Level FlightAware ADS-B (KBOI)
06:36PM 44.6624 -118.0864 288° West 403 464 34,000  Level FlightAware ADS-B (KBOI)
06:37PM 44.6796 -118.1666 288° West 404 465 34,000  Level FlightAware ADS-B (KBOI)
06:37PM 44.6960 -118.2419 287° West 405 466 34,000  Level FlightAware ADS-B (KBOI)
06:38PM 44.7126 -118.3175 287° West 405 466 34,000  Level FlightAware ADS-B (KBOI)
06:38PM 44.7159 -118.3325 287° West 405 466 34,000  Level FlightAware ADS-B (KBOI)
06:39PM 44.7451 -118.4662 288° West 406 467 34,000  Level FlightAware ADS-B (KBOI)
06:39PM 44.7565 -118.5192 287° West 407 468 34,000  Level FlightAware ADS-B (KBOI)
06:39PM 44.7679 -118.5726 287° West 407 468 34,000  Level FlightAware ADS-B (KPFC)
06:40PM 44.7707 -118.5850 287° West 406 467 34,000  Level FlightAware ADS-B (KBOI)
06:40PM 44.7867 -118.6609 287° West 406 467 34,000  Level FlightAware ADS-B (KBOI)
06:40PM 44.7991 -118.7191 287° West 406 467 34,000  Level FlightAware ADS-B (KPFC)
06:41PM 44.8221 -118.8252 287° West 406 467 34,000  Level FlightAware ADS-B (KPFC)
06:41PM 44.8306 -118.8658 287° West 405 466 34,000  Level FlightAware ADS-B (KBOI)
06:42PM 44.8520 -118.9668 287° West 404 465 34,000  Level FlightAware ADS-B (KBOI)
06:42PM 44.8551 -118.9820 287° West 405 466 34,000  Level FlightAware ADS-B (KPFC)
06:42PM 44.8692 -119.0502 287° West 404 465 34,000  Level FlightAware ADS-B (KBOI)
06:43PM 44.8794 -119.0983 286° West 404 465 34,000  Level FlightAware ADS-B (KPFC)
06:43PM 44.8852 -119.1261 287° West 404 465 34,000  Level FlightAware ADS-B (KBOI)
06:43PM 44.9011 -119.2018 287° West 404 465 34,000  Level FlightAware ADS-B (KBOI)
06:43PM 44.9042 -119.2170 286° West 405 466 34,000  Level FlightAware ADS-B (KPFC)
06:44PM 44.9164 -119.2750 287° West 405 466 34,000  Level FlightAware ADS-B (KBOI)
06:44PM 44.9296 -119.3385 287° West 404 465 34,000  Level FlightAware ADS-B (KBOI)
06:45PM 44.9483 -119.4293 287° West 402 463 34,000  Level FlightAware ADS-B (KBOI)
06:45PM 44.9531 -119.4520 286° West 403 464 34,000  Level FlightAware ADS-B (KPFC)
06:45PM 44.9568 -119.4696 287° West 402 463 34,000  Level FlightAware ADS-B (KBOI)
06:46PM 44.9739 -119.5529 286° West 404 465 34,000  Level FlightAware ADS-B (KPFC)
06:46PM 44.9949 -119.6569 286° West 404 465 34,000  Level FlightAware ADS-B (KBOI)
06:47PM 45.0074 -119.7178 287° West 403 464 34,000  Level FlightAware ADS-B (KBOI)
06:47PM 45.0160 -119.7608 285° West 402 463 34,000  Level FlightAware ADS-B (KPFC)
06:47PM 45.0255 -119.8062 286° West 403 464 34,000  Level FlightAware ADS-B (KBOI)
06:47PM 45.0265 -119.8113 286° West 403 464 34,000  Level FlightAware ADS-B (KSLE)
06:48PM 45.0338 -119.8494 286° West 403 464 34,000  Level FlightAware ADS-B (KBOI)
06:48PM 45.0425 -119.8923 285° West 400 460 34,000  Level FlightAware ADS-B (KPFC)
06:48PM 45.0556 -119.9555 286° West 403 464 34,000  Level FlightAware ADS-B (KBOI)
06:49PM 45.0628 -119.9910 285° West 401 461 34,000  Level FlightAware ADS-B (KPFC)
06:49PM 45.0794 -120.0747 285° West 402 463 34,000  Level FlightAware ADS-B (KPFC)
06:50PM 45.1015 -120.1863 286° West 404 465 34,000 -1,440 Level FlightAware ADS-B (KSLE)
06:51PM 45.1359 -120.3599 284° West 400 460 31,300 -2,580 Descending FlightAware ADS-B (KPFC)
06:52PM 45.1566 -120.4662 285° West 378 435 29,200 -2,520 Descending FlightAware ADS-B (KSLE)
06:52PM 45.1599 -120.4829 292° West 369 425 28,700 -1,080 Descending FlightAware ADS-B (KSLE)
06:52PM 45.1823 -120.5578 295° West 361 415 28,500 -1,260 Descending FlightAware ADS-B (KSLE)
06:53PM 45.2182 -120.6519 298° West 342 394 27,300 -1,380 Descending FlightAware ADS-B (KPFC)
06:54PM 45.2488 -120.7315 299° West 336 387 26,500 -1,620 Descending FlightAware ADS-B (KPFC)
06:54PM 45.2717 -120.7913 298° West 332 382 25,400 -2,040 Descending FlightAware ADS-B (KSLE)
06:55PM 45.2997 -120.8637 298° West 329 379 24,100 -1,980 Descending FlightAware ADS-B (KSLE)
06:55PM 45.3172 -120.9094 297° West 325 374 23,400 -1,860 Descending FlightAware ADS-B (KPFC)
06:56PM 45.3314 -120.9471 297° West 324 373 22,800 -1,920 Descending FlightAware ADS-B (KPFC)
06:56PM 45.3602 -121.0229 297° West 323 372 21,500 -1,980 Descending FlightAware ADS-B (KPFC)
06:57PM 45.3816 -121.0797 298° West 328 377 20,500 -2,040 Descending FlightAware ADS-B (KSLE)
06:58PM 45.4195 -121.1781 298° West 321 369 18,700 -2,100 Descending FlightAware ADS-B (KSLE)
06:58PM 45.4322 -121.2230 289° West 303 349 17,900 -2,040 Descending FlightAware ADS-B
06:58PM 45.4349 -121.2344 286° West 293 337 17,700 -1,380 Descending FlightAware ADS-B (KPFC)
06:59PM 45.4502 -121.3109 284° West 285 328 16,800 -1,560 Descending FlightAware ADS-B (KPFC)
07:00PM 45.4645 -121.3839 283° West 287 330 15,600 -1,620 Descending FlightAware ADS-B (KPFC)
07:00PM 45.4766 -121.4462 285° West 281 323 14,800 -900 Descending FlightAware ADS-B (KSLE)
07:01PM 45.4910 -121.5179 286° West 283 326 14,500 -1,020 Descending FlightAware ADS-B (KSLE)
07:01PM 45.5022 -121.5754 286° West 284 327 13,600 -1,680 Descending FlightAware ADS-B (KSLE)
07:02PM 45.5158 -121.6441 286° West 284 327 12,500 -1,560 Descending FlightAware ADS-B (KSLE)
07:03PM 45.5284 -121.7152 279° West 286 329 11,600 -1,440 Descending FlightAware ADS-B (KSLE)
07:03PM 45.5298 -121.7502 268° West 275 316 11,200 -1,920 Descending FlightAware ADS-B (KSLE)
07:03PM 45.5272 -121.7841 261° West 271 312 10,400 -2,280 Descending FlightAware ADS-B (KSLE)
07:04PM 45.5208 -121.8493 262° West 268 308 9,100 -2,220 Descending FlightAware ADS-B (KSLE)
07:04PM 45.5173 -121.8807 262° West 266 306 8,300 -2,340 Descending FlightAware ADS-B (KSLE)
07:05PM 45.5141 -121.9117 262° West 263 303 7,700 -1,800 Descending FlightAware ADS-B (KPFC)
07:05PM 45.5077 -121.9733 261° West 260 299 6,800 -1,020 Descending FlightAware ADS-B (KSLE)
07:05PM 45.5042 -122.0053 261° West 257 296 6,800 -180 Level FlightAware ADS-B (KSLE)
07:06PM 45.5009 -122.0365 262° West 245 282 6,700 -1,320 Descending FlightAware ADS-B (KPFC)
07:06PM 45.4946 -122.0952 261° West 244 281 5,600 -1,380 Descending FlightAware ADS-B (KSLE)
07:07PM 45.4914 -122.1244 261° West 226 260 5,400 -540 Descending FlightAware ADS-B (KSLE)
07:07PM 45.4889 -122.1474 261° West 217 250 5,300 -360 Descending FlightAware ADS-B (KPFC)
07:07PM 45.4859 -122.1756 261° West 214 246 5,200 -720 Descending FlightAware ADS-B (KPFC)
07:08PM 45.4834 -122.1992 261° West 211 243 4,900 -1,560 Descending FlightAware ADS-B (KSLE)
07:08PM 45.4805 -122.2255 261° West 212 244 4,300 -1,680 Descending FlightAware ADS-B (KSLE)
07:08PM 45.4775 -122.2548 261° West 215 247 3,800 -1,200 Descending FlightAware ADS-B (KSLE)
07:09PM 45.4727 -122.3041 273° West 212 244 3,200 -600 Descending FlightAware ADS-B (KSLE)
07:09PM 45.4793 -122.3249 304° West 195 224 3,300 120 Climbing FlightAware ADS-B (KSLE)
07:10PM 45.4893 -122.3494 295° West 175 201 3,300 -480 Level FlightAware ADS-B (KSLE)
07:10PM 45.5010 -122.3807 300° West 170 196 2,900 -840 Descending FlightAware ADS-B (KSLE)
07:11PM 45.5169 -122.4209 299° West 170 196 2,300 -960 Descending FlightAware ADS-B (KSLE)
07:11PM 45.5188 -122.4258 300° West 167 192 1,800 -900 Descending FlightAware ADS-B (KSLE)
07:12PM 45.5369 -122.4720 300° West 162 186 1,500 -840 Descending FlightAware ADS-B (KSLE)
07:12PM 45.5433 -122.4887 300° West 159 183 1,300 -600 Descending FlightAware ADS-B (KSLE)
07:13PM 45.5650 -122.5444 300° West 148 170 700 -540 Descending Seattle Center
07:13PM 45.5683 -122.5558 293° West 141 162 600 -600 Descending Seattle Center
07:14PM 45.5825 -122.5894 301° West 145 167 100 -720 Descending Seattle Center
07:16PM 45.5833 -122.5833 139° Southeast  Level FlightAware Approximate
07:23PM 45.5887 -122.5969 139° Southeast  Level Estimated
07:24PM 45.5887 -122.5969 139° Southeast  Level Estimated